KPYM

Plymouth Municipal Airport

Plymouth, Massachusetts, USA
METAR KPYM 161852Z AUTO 27009KT 10SM OVC036 03/M06 A2993 RMK AO2 SLP137 T00281056
Observed Flight Rules
Jan-16 @ 18:52 UTC (34 minutes ago) Visual Flight Rules
Wind Visibility Clouds
270° at 9 knots 10 miles
  • Overcast at 3,600' AGL
Temperatures Readings
Current 3°C / 37°F
Dewpoint -6°C / 21°F
Humidity 52%
Altimeter 29.93" Hg
Pressure 1013.7 hPa
Elevation 43
METAR KPYM 161852Z AUTO 27009KT 10SM OVC036 03/M06 A2993 RMK AO2 SLP137 T00281056
Observed Flight Rules
Jan-16 @ 18:52 UTC
(34 minutes ago)
VFR
Wind Visibility
270° at 9 knots 10 miles
Clouds
  • Overcast at 3,600' AGL
Temperature Dewpoint
3°C / 37°F -6°C / 21°F
Humidity Altimeter Pressure
52% 29.93" Hg 1013.7 hPa